KMCO

Orlando International Airport

Orlando, Florida, USA
METAR KMCO 151853Z 22014G20KT 10SM SCT043 BKN300 24/14 A3004 RMK AO2 SLP171 T02440139
Observed Flight Rules
Dec-15 @ 18:53 UTC (57 minutes ago) Visual Flight Rules
Wind Visibility Clouds
220° at 14 knots
 Gusting to 20 knots
10 miles
  • Scattered at 4,300' AGL
  • Broken at 30,000' AGL
Temperatures Readings
Current 24°C / 75°F
Dewpoint 14°C / 57°F
Humidity 54%
Altimeter 30.04" Hg
Pressure 1017.1 hPa
Elevation 29
METAR KMCO 151853Z 22014G20KT 10SM SCT043 BKN300 24/14 A3004 RMK AO2 SLP171 T02440139
Observed Flight Rules
Dec-15 @ 18:53 UTC
(57 minutes ago)
VFR
Wind Visibility
220° at 14 knots
 Gusting to 20 knots
10 miles
Clouds
  • Scattered at 4,300' AGL
  • Broken at 30,000' AGL
Temperature Dewpoint
24°C / 75°F 14°C / 57°F
Humidity Altimeter Pressure
54% 30.04" Hg 1017.1 hPa